Time;durP1;ratioP1;P1;durP2;ratioP2;P2;SDS_P1;SDS_P2;PMS_P1;PMS_P2;Temp;Humidity;BMP_temperature;BMP_pressure;BME280_temperature;BME280_humidity;BME280_pressure;Samples;Min_cycle;Max_cycle;Signal;HPM_P1;HPM_P2
2023/10/19 00:01:58;;;;;;;11.63;6.97;;;8.40;99.40;;;;;;5089468;28;20028;-74
2023/10/19 00:04:24;;;;;;;9.75;5.75;;;8.40;99.30;;;;;;5090661;28;20570;-74
2023/10/19 00:06:50;;;;;;;17.02;8.57;;;8.60;98.90;;;;;;5090641;28;20031;-75
2023/10/19 00:09:16;;;;;;;;;;;8.80;98.10;;;;;;5091150;28;20036;-74
2023/10/19 00:11:42;;;;;;;14.48;6.80;;;8.70;98.20;;;;;;5090732;28;19904;-75
2023/10/19 00:14:20;;;;;;;14.30;6.72;;;8.70;98.60;;;;;;5090543;28;20024;-74
2023/10/19 00:17:05;;;;;;;14.25;7.25;;;8.70;98.70;;;;;;5090624;28;20020;-75
2023/10/19 00:19:39;;;;;;;13.20;7.10;;;8.70;98.80;;;;;;5090599;28;20489;-75
2023/10/19 00:22:08;;;;;;;17.10;7.20;;;8.90;98.40;;;;;;5090493;28;20031;-75
2023/10/19 00:24:35;;;;;;;15.98;6.93;;;9.00;98.10;;;;;;5090489;28;20054;-74
2023/10/19 00:27:15;;;;;;;12.98;6.88;;;8.90;98.00;;;;;;5090508;28;20032;-75
2023/10/19 00:29:42;;;;;;;17.52;8.02;;;9.00;97.70;;;;;;5090482;28;20765;-74
2023/10/19 00:32:13;;;;;;;12.32;7.35;;;9.10;97.50;;;;;;5090496;28;20641;-74
2023/10/19 00:34:39;;;;;;;13.05;7.20;;;9.10;97.60;;;;;;5090219;28;20032;-74
2023/10/19 00:37:07;;;;;;;;;;;9.10;97.40;;;;;;5090831;28;20027;-75
2023/10/19 00:39:54;;;;;;;12.13;6.88;;;9.10;97.50;;;;;;5090499;28;20284;-74
2023/10/19 00:42:24;;;;;;;16.67;7.05;;;9.20;97.40;;;;;;5090531;28;20024;-74
2023/10/19 00:44:50;;;;;;;18.10;7.40;;;9.20;97.20;;;;;;5090332;28;20131;-75
2023/10/19 00:47:18;;;;;;;;;;;9.20;97.20;;;;;;5090660;28;20165;-75
2023/10/19 00:49:48;;;;;;;16.45;7.28;;;9.20;97.30;;;;;;5090315;28;19915;-75
2023/10/19 00:52:23;;;;;;;12.27;7.10;;;9.20;97.50;;;;;;5090422;28;20046;-75
2023/10/19 00:57:20;;;;;;;20.73;8.93;;;9.40;96.90;;;;;;5090213;28;20039;-75
2023/10/19 01:00:11;;;;;;;18.35;8.50;;;9.70;96.40;;;;;;5090212;28;20020;-75
2023/10/19 01:02:32;;;;;;;22.48;11.07;;;9.60;95.80;;;;;;5092739;28;20056;-75
2023/10/19 01:04:59;;;;;;;;;;;9.50;95.80;;;;;;5094185;28;20145;-74
2023/10/19 01:07:29;;;;;;;15.63;8.63;;;9.60;96.20;;;;;;5094144;28;19910;-75
2023/10/19 01:09:59;;;;;;;14.65;7.90;;;9.70;96.30;;;;;;5092439;28;20512;-75
2023/10/19 01:15:16;;;;;;;14.88;8.13;;;9.60;96.90;;;;;;5093784;28;20127;-75
2023/10/19 01:17:51;;;;;;;12.27;7.53;;;9.70;96.60;;;;;;5093501;28;20036;-75
2023/10/19 01:25:50;;;;;;;16.27;7.90;;;9.60;96.70;;;;;;5093696;28;20025;-74
2023/10/19 01:28:21;;;;;;;16.63;8.68;;;9.60;96.70;;;;;;5093420;28;20126;-75
2023/10/19 01:30:51;;;;;;;20.45;10.07;;;9.60;96.90;;;;;;5093229;28;20013;-74
2023/10/19 01:33:18;;;;;;;16.92;8.60;;;9.60;97.00;;;;;;5093350;28;20024;-75
2023/10/19 01:38:33;;;;;;;18.67;8.35;;;10.00;96.40;;;;;;5093547;28;20503;-74
2023/10/19 01:40:59;;;;;;;18.90;8.05;;;9.90;96.00;;;;;;5093591;28;20024;-74
2023/10/19 01:43:32;;;;;;;17.23;8.20;;;10.10;95.40;;;;;;5093024;28;20035;-74
2023/10/19 01:46:04;;;;;;;16.95;7.53;;;10.20;94.80;;;;;;5091612;28;20028;-75
2023/10/19 01:48:35;;;;;;;16.83;7.93;;;10.30;94.50;;;;;;5091842;28;20105;-75
2023/10/19 01:51:04;;;;;;;14.20;7.22;;;10.40;94.50;;;;;;5093101;28;20035;-74
2023/10/19 01:53:31;;;;;;;14.32;7.82;;;10.30;94.10;;;;;;5092938;28;20027;-75
2023/10/19 01:55:58;;;;;;;16.15;7.32;;;10.20;94.70;;;;;;5092698;28;20142;-75
2023/10/19 01:58:27;;;;;;;15.98;7.40;;;10.20;95.10;;;;;;5091511;28;20034;-74
2023/10/19 02:01:06;;;;;;;18.00;8.32;;;10.10;95.50;;;;;;5092771;28;20024;-75
2023/10/19 02:03:32;;;;;;;14.77;6.35;;;10.00;95.80;;;;;;5092628;28;20027;-75
2023/10/19 02:06:20;;;;;;;15.73;7.75;;;10.20;95.20;;;;;;5092636;28;20032;-75
2023/10/19 02:08:50;;;;;;;15.13;7.68;;;10.00;95.40;;;;;;5092592;28;20093;-75
2023/10/19 02:11:19;;;;;;;14.40;7.38;;;9.90;95.70;;;;;;5092592;28;20032;-74
2023/10/19 02:13:49;;;;;;;20.13;8.02;;;9.80;96.10;;;;;;5092474;28;20504;-75
2023/10/19 02:16:16;;;;;;;19.25;7.00;;;10.00;96.10;;;;;;5092453;28;20153;-75
2023/10/19 02:18:45;;;;;;;22.05;6.82;;;10.20;95.50;;;;;;5092286;28;20020;-75
2023/10/19 02:21:14;;;;;;;14.70;7.45;;;10.30;95.10;;;;;;5092388;28;20032;-74
2023/10/19 02:23:41;;;;;;;14.68;7.50;;;10.20;95.10;;;;;;5092424;28;20031;-75
2023/10/19 02:26:08;;;;;;;14.40;7.25;;;10.20;94.60;;;;;;5092250;28;20038;-74
2023/10/19 02:28:38;;;;;;;23.80;7.47;;;10.30;94.80;;;;;;5092181;28;20052;-75
2023/10/19 02:31:15;;;;;;;17.45;7.25;;;10.30;94.40;;;;;;5092276;28;20101;-74
2023/10/19 02:33:45;;;;;;;12.05;6.85;;;10.00;95.00;;;;;;5092221;28;20024;-75
2023/10/19 02:36:13;;;;;;;19.63;6.43;;;9.90;95.70;;;;;;5092074;28;20028;-75
2023/10/19 02:38:52;;;;;;;14.00;6.47;;;9.80;96.30;;;;;;5092034;28;20035;-75
2023/10/19 02:41:19;;;;;;;15.43;6.97;;;9.80;95.90;;;;;;5090659;28;20024;-75
2023/10/19 02:43:46;;;;;;;18.98;7.78;;;9.70;96.10;;;;;;5090653;28;20027;-75
2023/10/19 02:46:13;;;;;;;21.90;6.95;;;9.80;96.00;;;;;;5091833;28;20025;-75
2023/10/19 02:48:47;;;;;;;16.95;7.20;;;9.80;96.00;;;;;;5091841;28;20031;-75
2023/10/19 02:51:13;;;;;;;15.43;6.88;;;9.90;95.50;;;;;;5091804;28;20025;-75
2023/10/19 02:53:42;;;;;;;14.13;6.35;;;10.00;95.50;;;;;;5091672;28;20027;-75
2023/10/19 02:56:19;;;;;;;12.80;6.03;;;10.10;95.50;;;;;;5091674;28;20059;-75
2023/10/19 02:58:48;;;;;;;11.45;5.75;;;10.10;96.10;;;;;;5091918;28;20097;-75
2023/10/19 03:01:24;;;;;;;13.98;7.05;;;10.20;96.30;;;;;;5091634;28;20119;-75
2023/10/19 03:03:53;;;;;;;17.73;6.63;;;10.20;95.90;;;;;;5091323;28;20085;-74
2023/10/19 03:06:22;;;;;;;14.32;7.18;;;10.20;96.00;;;;;;5091577;28;20381;-74
2023/10/19 03:08:57;;;;;;;16.77;6.53;;;10.30;95.70;;;;;;5091453;28;20064;-74
2023/10/19 03:11:24;;;;;;;13.80;6.32;;;10.20;95.50;;;;;;5091492;28;20048;-75
2023/10/19 03:13:50;;;;;;;14.98;5.82;;;10.10;95.70;;;;;;5091285;28;20027;-75
2023/10/19 03:16:17;;;;;;;;;;;10.00;95.90;;;;;;5091825;28;20035;-74
2023/10/19 03:18:43;;;;;;;19.20;7.65;;;9.90;96.00;;;;;;5091340;28;19912;-75
2023/10/19 03:21:10;;;;;;;;;;;10.00;95.90;;;;;;5091779;28;20036;-75
2023/10/19 03:23:37;;;;;;;13.15;6.00;;;10.00;96.20;;;;;;5089786;28;19930;-73
2023/10/19 03:28:49;;;;;;;14.50;6.82;;;10.00;96.40;;;;;;5091575;28;20031;-74
2023/10/19 03:31:17;;;;;;;18.23;7.00;;;10.10;96.20;;;;;;5089834;28;20400;-75
2023/10/19 03:33:49;;;;;;;14.70;6.85;;;10.10;96.00;;;;;;5089772;28;20061;-74
2023/10/19 03:36:15;;;;;;;17.90;7.68;;;10.00;96.00;;;;;;5090976;28;20024;-75
2023/10/19 03:38:41;;;;;;;;;;;10.00;95.90;;;;;;5091382;28;20027;-75
2023/10/19 03:41:10;;;;;;;19.17;7.38;;;10.00;96.00;;;;;;5089739;28;20002;-75
2023/10/19 03:43:40;;;;;;;15.98;6.90;;;10.10;96.00;;;;;;5089741;28;20468;-75
2023/10/19 03:46:19;;;;;;;15.40;7.88;;;10.10;96.10;;;;;;5090924;28;20086;-75
2023/10/19 03:48:46;;;;;;;18.30;7.50;;;10.20;95.80;;;;;;5091055;28;20043;-74
2023/10/19 03:51:13;;;;;;;21.08;7.82;;;10.20;95.10;;;;;;5089519;28;20024;-75
2023/10/19 03:53:43;;;;;;;19.75;7.65;;;10.10;95.40;;;;;;5090708;28;20085;-75
2023/10/19 03:56:11;;;;;;;21.02;8.40;;;10.10;95.80;;;;;;5090681;28;20055;-75
2023/10/19 03:58:38;;;;;;;25.83;8.27;;;10.00;95.90;;;;;;5089425;28;20020;-75
2023/10/19 04:01:04;;;;;;;18.80;7.50;;;10.00;95.90;;;;;;5090768;28;20021;-74
2023/10/19 04:03:30;;;;;;;;;;;10.10;96.10;;;;;;5091076;28;20016;-74
2023/10/19 04:06:00;;;;;;;15.00;6.75;;;10.10;96.10;;;;;;5090742;28;20041;-74
2023/10/19 04:08:26;;;;;;;15.35;8.10;;;10.00;96.40;;;;;;5090728;28;20097;-74
2023/10/19 04:11:08;;;;;;;15.68;7.28;;;9.90;96.80;;;;;;5090647;28;20109;-74
2023/10/19 04:13:36;;;;;;;14.57;7.45;;;9.90;97.20;;;;;;5090504;28;20511;-74
2023/10/19 04:16:02;;;;;;;18.55;8.52;;;9.90;97.40;;;;;;5090801;28;20039;-75
2023/10/19 04:18:28;;;;;;;15.65;7.65;;;9.80;97.50;;;;;;5090597;28;20021;-74
2023/10/19 04:23:21;;;;;;;;;;;9.80;98.80;;;;;;5091275;28;20150;-75
2023/10/19 04:25:47;;;;;;;17.10;8.57;;;9.70;98.80;;;;;;5090428;28;19904;-75
2023/10/19 04:28:30;;;;;;;16.88;9.18;;;9.60;99.20;;;;;;5090395;28;20028;-75
2023/10/19 04:31:00;;;;;;;14.27;8.63;;;9.60;99.70;;;;;;5090794;28;20388;-75
2023/10/19 04:33:28;;;;;;;19.30;8.65;;;9.50;99.90;;;;;;5089171;28;20062;-74
2023/10/19 04:35:55;;;;;;;19.58;8.95;;;9.50;99.90;;;;;;5090374;28;20032;-75
2023/10/19 04:38:22;;;;;;;17.17;9.45;;;9.50;99.90;;;;;;5094313;28;20107;-75
2023/10/19 04:40:48;;;;;;;19.77;9.82;;;9.40;99.90;;;;;;5094216;28;20028;-75
2023/10/19 04:43:13;;;;;;;;;;;9.40;99.90;;;;;;5094776;28;20162;-75
2023/10/19 04:45:44;;;;;;;15.95;9.48;;;9.10;99.90;;;;;;5094138;28;20295;-75
2023/10/19 04:48:10;;;;;;;15.75;8.55;;;9.30;99.90;;;;;;5094083;28;20035;-75
2023/10/19 04:50:36;;;;;;;17.85;10.55;;;9.30;99.90;;;;;;5094124;28;20028;-75
2023/10/19 04:53:02;;;;;;;;;;;9.20;99.90;;;;;;5094523;28;20039;-75
2023/10/19 04:55:29;;;;;;;15.38;9.73;;;9.20;99.90;;;;;;5093825;28;19912;-75
2023/10/19 04:57:56;;;;;;;22.27;10.13;;;9.10;99.90;;;;;;5094023;28;20016;-75
2023/10/19 05:00:24;;;;;;;20.90;10.40;;;8.90;99.90;;;;;;5093907;28;20020;-75
2023/10/19 05:02:51;;;;;;;24.95;11.98;;;8.70;99.90;;;;;;5094036;28;20020;-74
2023/10/19 05:05:18;;;;;;;24.42;12.48;;;8.50;99.90;;;;;;5093660;28;20075;-75
2023/10/19 05:07:44;;;;;;;20.45;12.18;;;8.30;99.90;;;;;;5093704;28;20016;-75
2023/10/19 05:10:11;;;;;;;;;;;8.30;99.90;;;;;;5092928;28;20439;-75
2023/10/19 05:12:36;;;;;;;17.33;11.80;;;8.20;99.90;;;;;;5092467;28;20318;-75
2023/10/19 05:15:02;;;;;;;;;;;8.00;99.90;;;;;;5094024;28;20504;-75
2023/10/19 05:17:28;;;;;;;23.83;12.90;;;8.00;99.90;;;;;;5093696;28;19922;-76
2023/10/19 05:19:53;;;;;;;;;;;8.10;99.90;;;;;;5094089;28;20024;-75
2023/10/19 05:22:19;;;;;;;25.73;13.27;;;8.00;99.90;;;;;;5093472;28;19912;-75
2023/10/19 05:24:44;;;;;;;;;;;7.90;99.90;;;;;;5093939;28;20032;-75
2023/10/19 05:27:12;;;;;;;28.42;15.10;;;7.90;99.90;;;;;;5093588;28;19908;-75
2023/10/19 05:29:39;;;;;;;25.08;13.07;;;8.00;99.90;;;;;;5093272;28;20024;-76
2023/10/19 05:32:05;;;;;;;24.85;15.00;;;8.00;99.90;;;;;;5093372;28;20494;-75
2023/10/19 05:34:34;;;;;;;;;;;7.80;99.90;;;;;;5093700;28;20070;-74
2023/10/19 05:37:02;;;;;;;23.38;13.75;;;7.90;99.90;;;;;;5093240;28;20006;-75
2023/10/19 05:39:28;;;;;;;22.30;15.82;;;7.90;99.90;;;;;;5091875;28;20032;-75
2023/10/19 05:42:00;;;;;;;30.90;15.50;;;7.70;99.90;;;;;;5093351;28;20013;-75
2023/10/19 05:44:27;;;;;;;26.92;15.50;;;7.60;99.90;;;;;;5093143;28;20032;-75
2023/10/19 05:46:54;;;;;;;25.40;17.75;;;7.50;99.90;;;;;;5092600;28;20021;-75
2023/10/19 05:49:20;;;;;;;26.35;16.40;;;7.50;99.90;;;;;;5093111;28;20052;-76
2023/10/19 05:51:45;;;;;;;;;;;7.70;99.90;;;;;;5093474;28;20052;-75
2023/10/19 05:54:12;;;;;;;25.30;15.35;;;7.70;99.90;;;;;;5091424;28;19912;-75
2023/10/19 05:56:37;;;;;;;27.92;15.30;;;7.80;99.90;;;;;;5092863;28;20016;-76
2023/10/19 05:59:04;;;;;;;;;;;7.80;99.90;;;;;;5093543;28;20016;-76
2023/10/19 06:01:30;;;;;;;24.48;15.95;;;7.90;99.90;;;;;;5092895;28;19908;-76
2023/10/19 06:03:56;;;;;;;;;;;7.70;99.90;;;;;;5093021;28;20051;-75
2023/10/19 06:06:22;;;;;;;25.50;17.08;;;7.80;99.90;;;;;;5091335;28;20408;-75
2023/10/19 06:08:49;;;;;;;28.42;18.20;;;7.70;99.90;;;;;;5092822;28;20020;-75
2023/10/19 06:11:15;;;;;;;31.70;19.45;;;7.70;99.90;;;;;;5092665;28;20075;-75
2023/10/19 06:13:40;;;;;;;;;;;7.70;99.90;;;;;;5093001;28;20484;-76
2023/10/19 06:16:06;;;;;;;25.52;16.77;;;7.70;99.90;;;;;;5092563;28;20006;-76
2023/10/19 06:18:32;;;;;;;;;;;7.70;99.90;;;;;;5092897;28;20027;-76
2023/10/19 06:20:57;;;;;;;28.40;17.90;;;7.80;99.90;;;;;;5092444;28;20260;-75
2023/10/19 06:23:23;;;;;;;;;;;7.60;99.90;;;;;;5092788;28;20024;-75
2023/10/19 06:25:51;;;;;;;30.58;18.67;;;7.60;99.90;;;;;;5092270;28;19908;-76
2023/10/19 06:28:17;;;;;;;25.83;17.77;;;7.60;99.90;;;;;;5092285;28;20020;-76
2023/10/19 06:30:43;;;;;;;26.73;16.95;;;7.70;99.90;;;;;;5092244;28;20020;-75
2023/10/19 06:33:08;;;;;;;;;;;7.70;99.90;;;;;;5091482;28;20038;-75
2023/10/19 06:35:37;;;;;;;20.15;15.20;;;7.70;99.90;;;;;;5092074;28;19912;-75
2023/10/19 06:38:03;;;;;;;22.50;13.85;;;7.70;99.90;;;;;;5092111;28;20019;-76
2023/10/19 06:40:30;;;;;;;18.35;12.85;;;7.70;99.90;;;;;;5090679;28;20057;-75
2023/10/19 06:43:02;;;;;;;17.67;13.90;;;7.70;99.90;;;;;;5092073;28;20097;-75
2023/10/19 06:45:29;;;;;;;18.20;13.40;;;7.70;99.90;;;;;;5091967;28;20047;-76
2023/10/19 06:47:55;;;;;;;18.65;13.65;;;7.70;99.90;;;;;;5091956;28;20480;-75
2023/10/19 06:50:22;;;;;;;;;;;7.80;99.90;;;;;;5092182;28;20027;-75
2023/10/19 06:52:48;;;;;;;16.10;12.48;;;7.80;99.90;;;;;;5091925;28;19931;-75
2023/10/19 06:55:19;;;;;;;18.00;12.82;;;7.80;99.90;;;;;;5091560;28;20036;-75
2023/10/19 06:57:47;;;;;;;19.25;14.50;;;7.80;99.90;;;;;;5091669;28;20454;-75
2023/10/19 07:00:26;;;;;;;18.40;13.07;;;7.70;99.90;;;;;;5090863;28;20016;-76
2023/10/19 07:02:55;;;;;;;18.60;13.27;;;7.70;99.90;;;;;;5091581;28;20020;-76
2023/10/19 07:05:24;;;;;;;19.17;13.48;;;7.80;99.90;;;;;;5091477;28;20044;-75
2023/10/19 07:07:52;;;;;;;17.25;12.77;;;7.70;99.90;;;;;;5091506;28;20583;-76
2023/10/19 07:10:19;;;;;;;14.30;11.38;;;7.80;99.90;;;;;;5091556;28;20024;-75
2023/10/19 07:12:46;;;;;;;15.95;11.80;;;7.80;99.90;;;;;;5091421;28;20016;-76
2023/10/19 07:15:18;;;;;;;16.52;11.95;;;7.80;99.90;;;;;;5091305;28;20049;-75
2023/10/19 07:17:45;;;;;;;17.23;12.80;;;7.80;99.90;;;;;;5090041;28;20122;-75
2023/10/19 07:20:25;;;;;;;16.77;11.30;;;7.70;99.90;;;;;;5091288;28;20078;-75
2023/10/19 07:22:51;;;;;;;14.63;10.68;;;7.80;99.90;;;;;;5089951;28;20463;-75
2023/10/19 07:25:21;;;;;;;16.42;11.05;;;7.80;99.90;;;;;;5089858;28;20031;-75
2023/10/19 07:27:49;;;;;;;12.95;9.73;;;7.80;99.90;;;;;;5090003;28;20107;-76
2023/10/19 07:30:16;;;;;;;15.55;9.80;;;7.90;99.90;;;;;;5091200;28;20152;-76
2023/10/19 07:32:42;;;;;;;11.35;8.82;;;7.90;99.90;;;;;;5089829;28;20024;-75
2023/10/19 07:35:08;;;;;;;11.88;8.75;;;7.90;99.90;;;;;;5091038;28;20063;-75
2023/10/19 07:37:34;;;;;;;;;;;7.90;99.90;;;;;;5091625;28;20056;-76
2023/10/19 07:39:59;;;;;;;10.93;7.90;;;8.00;99.90;;;;;;5090999;28;19904;-75
2023/10/19 07:42:25;;;;;;;;;;;7.90;99.90;;;;;;5090242;28;20034;-75
2023/10/19 07:44:51;;;;;;;8.63;7.30;;;7.90;99.90;;;;;;5089473;28;19911;-76
2023/10/19 07:47:16;;;;;;;;;;;7.90;99.90;;;;;;5089991;28;20431;-76
2023/10/19 07:49:43;;;;;;;8.80;6.75;;;7.90;99.90;;;;;;5089662;28;19908;-75
2023/10/19 07:52:10;;;;;;;10.40;7.72;;;8.00;99.90;;;;;;5090907;28;20024;-75
2023/10/19 07:54:37;;;;;;;11.75;7.50;;;8.10;99.90;;;;;;5089293;28;20028;-75
2023/10/19 07:57:05;;;;;;;9.80;7.60;;;8.10;99.90;;;;;;5090845;28;20032;-76
2023/10/19 07:59:32;;;;;;;11.10;8.77;;;8.20;99.90;;;;;;5089539;28;20028;-76
2023/10/19 08:02:02;;;;;;;10.68;8.73;;;8.20;99.90;;;;;;5090835;28;20040;-76
2023/10/19 08:04:28;;;;;;;11.80;8.45;;;8.20;99.90;;;;;;5090999;28;20060;-75
2023/10/19 08:06:55;;;;;;;11.95;8.90;;;8.20;99.90;;;;;;5090699;28;20450;-76
2023/10/19 08:09:22;;;;;;;12.93;8.95;;;8.30;99.90;;;;;;5090794;28;20028;-76
2023/10/19 08:11:49;;;;;;;12.77;9.88;;;8.40;99.90;;;;;;5094406;28;20028;-76
2023/10/19 08:14:15;;;;;;;11.50;9.07;;;8.30;99.90;;;;;;5094830;28;20032;-76
2023/10/19 08:16:41;;;;;;;;;;;8.40;99.90;;;;;;5095226;28;20032;-75
2023/10/19 08:19:07;;;;;;;20.50;12.67;;;8.40;99.90;;;;;;5094765;28;19908;-75
2023/10/19 08:21:34;;;;;;;;;;;8.40;99.90;;;;;;5095177;28;20503;-76
2023/10/19 08:24:04;;;;;;;17.10;10.98;;;8.40;99.90;;;;;;5094734;28;19915;-76
2023/10/19 08:26:32;;;;;;;12.00;9.10;;;8.40;99.90;;;;;;5094747;28;20016;-76
2023/10/19 08:28:58;;;;;;;9.90;8.57;;;8.40;99.90;;;;;;5093281;28;20051;-76
2023/10/19 08:31:24;;;;;;;10.05;7.88;;;8.40;99.90;;;;;;5094741;28;20031;-76
2023/10/19 08:33:50;;;;;;;;;;;8.50;99.90;;;;;;5095035;28;20028;-76
2023/10/19 08:36:19;;;;;;;10.93;8.25;;;8.50;99.90;;;;;;5094484;28;19908;-75
2023/10/19 08:38:46;;;;;;;10.55;8.07;;;8.60;99.90;;;;;;5094359;28;20039;-75
2023/10/19 08:41:15;;;;;;;11.35;8.45;;;8.80;99.90;;;;;;5094462;28;20447;-75
2023/10/19 08:43:41;;;;;;;13.13;10.43;;;8.70;99.90;;;;;;5094306;28;20023;-76
2023/10/19 08:46:06;;;;;;;;;;;8.60;99.90;;;;;;5094706;28;20032;-76
2023/10/19 08:48:36;;;;;;;10.82;7.68;;;8.60;99.90;;;;;;5094238;28;19912;-75
2023/10/19 08:51:07;;;;;;;9.93;8.55;;;8.70;99.90;;;;;;5094298;28;20506;-75
2023/10/19 08:53:39;;;;;;;22.85;17.92;;;8.60;99.90;;;;;;5094109;28;20077;-75
2023/10/19 08:56:06;;;;;;;27.80;20.40;;;8.60;99.90;;;;;;5094265;28;20074;-75
2023/10/19 08:58:32;;;;;;;11.38;8.18;;;8.70;99.90;;;;;;5092701;28;20384;-76
2023/10/19 09:01:06;;;;;;;;;;;8.80;99.90;;;;;;5094397;28;20035;-76
2023/10/19 09:03:34;;;;;;;9.13;6.78;;;8.80;99.90;;;;;;5093882;28;19908;-75
2023/10/19 09:06:05;;;;;;;15.48;10.90;;;8.80;99.90;;;;;;5093893;28;20079;-75
2023/10/19 09:08:40;;;;;;;11.77;8.63;;;8.80;99.90;;;;;;5093898;28;20028;-75
2023/10/19 09:11:11;;;;;;;15.48;9.23;;;8.90;99.90;;;;;;5092463;28;20448;-75
2023/10/19 09:13:47;;;;;;;11.50;8.70;;;8.70;99.90;;;;;;5093858;28;20103;-75
2023/10/19 09:16:18;;;;;;;8.65;6.25;;;8.80;99.90;;;;;;5093830;28;20035;-76
2023/10/19 09:18:44;;;;;;;15.43;11.70;;;8.90;99.90;;;;;;5092443;28;20024;-75
2023/10/19 09:21:23;;;;;;;8.90;7.38;;;8.70;99.90;;;;;;5093686;28;20507;-75
2023/10/19 09:23:51;;;;;;;8.07;5.68;;;8.60;99.90;;;;;;5092913;28;20028;-76
2023/10/19 09:26:17;;;;;;;17.80;14.38;;;8.70;99.90;;;;;;5093584;28;20035;-75
2023/10/19 09:28:50;;;;;;;8.55;4.80;;;8.80;99.90;;;;;;5092117;28;20032;-75
2023/10/19 09:31:16;;;;;;;16.45;11.60;;;8.70;99.90;;;;;;5093471;28;20514;-75
2023/10/19 09:33:46;;;;;;;5.90;4.63;;;8.70;99.90;;;;;;5093187;28;20029;-76
2023/10/19 09:36:13;;;;;;;8.77;7.72;;;8.90;99.90;;;;;;5093269;28;20040;-76
2023/10/19 09:38:51;;;;;;;6.13;4.00;;;8.90;99.90;;;;;;5093307;28;20047;-75
2023/10/19 09:41:28;;;;;;;9.45;7.88;;;9.10;99.90;;;;;;5091950;28;20024;-75
2023/10/19 09:44:04;;;;;;;10.15;5.07;;;9.10;99.90;;;;;;5093147;28;20400;-75
2023/10/19 09:46:33;;;;;;;13.13;7.75;;;9.10;99.90;;;;;;5093086;28;20067;-75
2023/10/19 09:48:59;;;;;;;11.98;8.05;;;9.00;99.90;;;;;;5091668;28;20108;-75
2023/10/19 09:51:25;;;;;;;10.02;6.72;;;9.10;99.90;;;;;;5091964;28;20029;-74
2023/10/19 09:54:12;;;;;;;12.40;9.73;;;9.00;99.90;;;;;;5091730;28;20035;-75
2023/10/19 09:56:41;;;;;;;;;;;9.10;99.90;;;;;;5093516;28;20028;-75
2023/10/19 09:59:18;;;;;;;15.27;10.90;;;9.00;99.90;;;;;;5092819;28;19904;-76
2023/10/19 10:02:12;;;;;;;14.55;11.60;;;9.20;99.90;;;;;;5092866;28;20056;-75
2023/10/19 10:04:39;;;;;;;15.63;11.00;;;9.10;99.90;;;;;;5089859;28;20058;-76
2023/10/19 10:07:06;;;;;;;19.50;12.88;;;9.20;99.90;;;;;;5092752;28;20032;-75
2023/10/19 10:09:48;;;;;;;16.90;11.98;;;9.30;99.90;;;;;;5092826;28;20043;-75
2023/10/19 10:12:18;;;;;;;23.77;16.20;;;9.40;99.90;;;;;;5092581;28;20035;-75
2023/10/19 10:15:07;;;;;;;23.23;17.05;;;9.40;99.90;;;;;;5092482;28;20519;-75
2023/10/19 10:17:38;;;;;;;99.07;60.28;;;9.40;99.90;;;;;;5092402;28;20411;-76
2023/10/19 10:20:18;;;;;;;36.00;23.52;;;9.50;99.90;;;;;;5092618;28;20020;-76
2023/10/19 10:22:44;;;;;;;23.45;17.80;;;9.70;99.90;;;;;;5092441;28;20028;-76
2023/10/19 10:25:29;;;;;;;18.70;15.05;;;9.70;99.90;;;;;;5092383;28;20043;-76
2023/10/19 10:27:55;;;;;;;22.73;15.68;;;9.70;99.90;;;;;;5091016;28;20023;-75
2023/10/19 10:30:21;;;;;;;20.15;15.15;;;9.80;99.90;;;;;;5092359;28;20525;-75
2023/10/19 10:32:50;;;;;;;;;;;9.80;99.90;;;;;;5092573;28;20024;-75
2023/10/19 10:35:41;;;;;;;24.75;17.25;;;10.00;99.90;;;;;;5089690;28;19935;-75
2023/10/19 10:38:11;;;;;;;22.90;16.50;;;10.10;99.90;;;;;;5090755;28;20028;-75
2023/10/19 10:40:44;;;;;;;24.27;16.55;;;10.00;99.90;;;;;;5090842;28;20101;-75
2023/10/19 10:43:11;;;;;;;26.08;18.63;;;9.90;99.90;;;;;;5092015;28;20099;-75
2023/10/19 10:45:37;;;;;;;25.70;19.33;;;10.10;99.90;;;;;;5091960;28;20027;-75
2023/10/19 10:48:03;;;;;;;;;;;10.20;99.90;;;;;;5092361;28;20028;-75
2023/10/19 10:50:29;;;;;;;34.03;24.13;;;10.10;99.90;;;;;;5091924;28;20030;-75
2023/10/19 10:52:57;;;;;;;;;;;10.10;99.90;;;;;;5092314;28;20127;-75
2023/10/19 10:55:41;;;;;;;49.50;31.67;;;10.10;99.90;;;;;;5091529;28;19980;-75
2023/10/19 10:58:07;;;;;;;40.22;29.02;;;10.10;99.90;;;;;;5091728;28;20150;-75
2023/10/19 11:00:36;;;;;;;;;;;10.30;99.90;;;;;;5092131;28;20122;-75
2023/10/19 11:03:09;;;;;;;39.55;27.73;;;10.30;99.90;;;;;;5091668;28;19904;-75
2023/10/19 11:05:36;;;;;;;40.22;28.95;;;10.20;99.90;;;;;;5091365;28;20397;-75
2023/10/19 11:08:09;;;;;;;36.33;26.75;;;10.20;99.90;;;;;;5090225;28;20035;-75
2023/10/19 11:10:36;;;;;;;36.60;28.90;;;10.40;99.90;;;;;;5091577;28;20392;-75
2023/10/19 11:13:02;;;;;;;37.38;28.80;;;10.40;99.90;;;;;;5091496;28;20020;-76
2023/10/19 11:15:27;;;;;;;;;;;10.40;99.90;;;;;;5091737;28;20111;-75
2023/10/19 11:17:53;;;;;;;44.13;30.60;;;10.50;99.90;;;;;;5090016;28;19991;-75
2023/10/19 11:20:22;;;;;;;;;;;10.60;99.90;;;;;;5091660;28;20532;-75
2023/10/19 11:22:50;;;;;;;41.90;31.42;;;10.70;99.90;;;;;;5091286;28;19958;-75
2023/10/19 11:25:30;;;;;;;47.05;34.45;;;10.70;99.90;;;;;;5089805;28;20024;-75
2023/10/19 11:27:57;;;;;;;46.47;33.83;;;10.60;99.90;;;;;;5091052;28;20034;-75
2023/10/19 11:30:28;;;;;;;53.28;35.40;;;10.60;99.90;;;;;;5091069;28;20028;-75
2023/10/19 11:33:00;;;;;;;45.60;34.53;;;10.60;99.90;;;;;;5091054;28;20038;-75
2023/10/19 11:35:28;;;;;;;47.72;33.58;;;10.60;99.90;;;;;;5090846;28;20032;-75
2023/10/19 11:38:02;;;;;;;51.42;34.47;;;10.60;99.90;;;;;;5091038;28;20519;-75
2023/10/19 11:40:28;;;;;;;47.88;35.45;;;10.60;99.90;;;;;;5091005;28;20028;-75
2023/10/19 11:42:56;;;;;;;;;;;10.60;99.90;;;;;;5091425;28;20073;-74
2023/10/19 11:45:25;;;;;;;53.25;36.85;;;10.80;99.90;;;;;;5090537;28;20294;-75
2023/10/19 11:47:50;;;;;;;51.90;36.78;;;10.80;99.90;;;;;;5091035;28;20020;-75
2023/10/19 11:50:17;;;;;;;;;;;10.70;99.90;;;;;;5091377;28;20028;-75
2023/10/19 11:52:45;;;;;;;55.38;36.88;;;10.70;99.90;;;;;;5089651;28;20422;-75
2023/10/19 11:55:13;;;;;;;63.53;38.90;;;10.70;99.90;;;;;;5090555;28;20078;-76
2023/10/19 11:57:40;;;;;;;59.70;38.80;;;10.60;99.90;;;;;;5090610;28;20028;-75
2023/10/19 12:00:08;;;;;;;60.28;39.67;;;10.70;99.90;;;;;;5090687;28;20028;-75
2023/10/19 12:02:37;;;;;;;58.50;39.03;;;10.70;99.90;;;;;;5089432;28;20510;-74
2023/10/19 12:05:04;;;;;;;59.17;37.30;;;10.80;99.90;;;;;;5090536;28;20048;-75
2023/10/19 12:07:34;;;;;;;68.55;41.53;;;10.80;99.90;;;;;;5090425;28;20131;-75
2023/10/19 12:09:59;;;;;;;74.22;45.97;;;10.70;99.90;;;;;;5090670;28;20491;-75
2023/10/19 12:12:25;;;;;;;;;;;10.80;99.90;;;;;;5091140;28;20035;-75
2023/10/19 12:14:54;;;;;;;106.15;54.08;;;10.70;99.90;;;;;;5090544;28;19912;-75
2023/10/19 12:17:19;;;;;;;83.65;45.25;;;10.80;99.90;;;;;;5090544;28;20045;-75
2023/10/19 12:19:45;;;;;;;;;;;10.80;99.90;;;;;;5091297;28;20572;-75
2023/10/19 12:22:11;;;;;;;79.32;43.17;;;11.00;99.90;;;;;;5090513;28;20387;-75
2023/10/19 12:24:36;;;;;;;;;;;11.10;99.90;;;;;;5090954;28;20496;-75
2023/10/19 12:27:02;;;;;;;78.65;44.25;;;11.10;99.90;;;;;;5090561;28;19907;-75
2023/10/19 12:29:27;;;;;;;;;;;11.40;99.90;;;;;;5090952;28;20024;-75
2023/10/19 12:31:53;;;;;;;83.10;45.58;;;11.50;99.90;;;;;;5090624;28;20333;-75
2023/10/19 12:34:18;;;;;;;;;;;11.50;99.90;;;;;;5090857;28;20043;-75
2023/10/19 12:36:46;;;;;;;78.78;43.10;;;11.70;99.90;;;;;;5090454;28;20391;-75
2023/10/19 12:39:35;;;;;;;80.32;45.42;;;11.70;99.90;;;;;;5090453;28;20553;-75
2023/10/19 12:41:57;;;;;;;70.38;42.78;;;11.90;99.90;;;;;;5090185;28;20073;-75
2023/10/19 12:44:24;;;;;;;;;;;12.00;99.90;;;;;;5090883;28;20020;-75
2023/10/19 12:46:49;;;;;;;71.93;42.40;;;12.20;99.90;;;;;;5090506;28;19908;-75
2023/10/19 12:49:18;;;;;;;68.90;41.25;;;12.10;99.90;;;;;;5090268;28;20024;-75
2023/10/19 12:51:44;;;;;;;73.72;42.78;;;12.20;99.90;;;;;;5090272;28;20113;-75
2023/10/19 12:54:11;;;;;;;;;;;12.20;99.90;;;;;;5090549;28;20051;-75
2023/10/19 12:56:39;;;;;;;;;;;12.30;99.90;;;;;;5090915;28;19908;-76
2023/10/19 12:59:06;;;;;;;69.38;42.17;;;12.40;99.90;;;;;;5093692;28;19908;-75
2023/10/19 13:01:35;;;;;;;66.20;42.38;;;12.50;99.90;;;;;;5093995;28;20148;-75
2023/10/19 13:04:05;;;;;;;67.47;42.65;;;12.50;99.90;;;;;;5093736;28;20036;-76
2023/10/19 13:06:31;;;;;;;64.70;39.90;;;12.70;99.90;;;;;;5093890;28;20061;-75
2023/10/19 13:08:57;;;;;;;67.30;40.55;;;12.80;99.90;;;;;;5093701;28;20032;-75
2023/10/19 13:11:23;;;;;;;64.10;42.05;;;12.80;99.90;;;;;;5093750;28;20392;-74
2023/10/19 13:13:49;;;;;;;;;;;12.80;99.90;;;;;;5094162;28;20473;-75
2023/10/19 13:16:15;;;;;;;64.32;39.03;;;12.80;99.90;;;;;;5092190;28;20015;-75
2023/10/19 13:18:41;;;;;;;58.05;37.53;;;12.80;99.90;;;;;;5093493;28;20035;-75
2023/10/19 13:21:11;;;;;;;62.20;38.25;;;12.90;99.90;;;;;;5093638;28;20023;-75